Time;durP1;ratioP1;P1;durP2;ratioP2;P2;SDS_P1;SDS_P2;PMS_P1;PMS_P2;Temp;Humidity;BMP_temperature;BMP_pressure;BME280_temperature;BME280_humidity;BME280_pressure;Samples;Min_cycle;Max_cycle;Signal;HPM_P1;HPM_P2
2022/01/14 00:01:28;;;;;;;17.95;11.60;;;;;;;;;;6126767;23;20383;-69
2022/01/14 00:03:53;;;;;;;18.02;10.50;;;;;;;;;;6126619;23;20006;-69
2022/01/14 00:06:19;;;;;;;14.13;9.05;;;;;;;;;;6126738;23;19998;-69
2022/01/14 00:08:44;;;;;;;17.05;11.20;;;;;;;;;;6129696;23;20489;-69
2022/01/14 00:11:15;;;;;;;17.30;11.05;;;;;;;;;;6129427;23;20073;-70
2022/01/14 00:14:06;;;;;;;17.55;10.40;;;;;;;;;;6103720;23;20103;-69
2022/01/14 00:16:32;;;;;;;18.27;11.40;;;;;;;;;;6129773;23;20009;-69
2022/01/14 00:18:58;;;;;;;12.38;8.27;;;;;;;;;;6129794;23;20351;-69
2022/01/14 00:21:24;;;;;;;16.90;10.93;;;;;;;;;;6129932;23;20009;-69
2022/01/14 00:23:53;;;;;;;16.92;11.88;;;;;;;;;;6103835;23;20347;-70
2022/01/14 00:34:12;;;;;;;17.48;10.48;;;;;;;;;;6103871;23;20029;-64
2022/01/14 00:36:38;;;;;;;17.75;10.65;;;;;;;;;;6130088;23;20392;-64
2022/01/14 00:39:04;;;;;;;17.35;10.70;;;;;;;;;;6129206;23;19998;-64
2022/01/14 00:41:35;;;;;;;14.38;9.40;;;;;;;;;;6129911;23;20077;-64
2022/01/14 00:44:02;;;;;;;16.67;10.85;;;;;;;;;;6129647;23;20014;-64
2022/01/14 00:46:28;;;;;;;14.40;9.45;;;;;;;;;;6129832;23;20001;-69
2022/01/14 00:48:53;;;;;;;14.68;9.48;;;;;;;;;;6129879;23;20010;-70
2022/01/14 00:51:19;;;;;;;15.02;9.30;;;;;;;;;;6129530;23;20002;-70
2022/01/14 00:53:45;;;;;;;14.32;9.35;;;;;;;;;;6129534;23;20024;-70
2022/01/14 01:01:35;;;;;;;11.63;7.47;;;;;;;;;;6129474;23;19904;-70
2022/01/14 01:04:01;;;;;;;12.48;8.80;;;;;;;;;;6129561;23;20010;-69
2022/01/14 01:06:26;;;;;;;12.60;9.15;;;;;;;;;;6103877;23;20013;-70
2022/01/14 01:08:55;;;;;;;13.05;8.73;;;;;;;;;;6129327;23;20077;-71
2022/01/14 01:11:25;;;;;;;9.13;6.85;;;;;;;;;;6129483;23;20018;-71
2022/01/14 01:14:01;;;;;;;12.80;8.60;;;;;;;;;;6129552;23;20002;-71
2022/01/14 01:16:27;;;;;;;13.23;8.45;;;;;;;;;;6129391;23;20010;-71
2022/01/14 01:18:52;;;;;;;12.30;8.70;;;;;;;;;;6128279;23;20001;-72
2022/01/14 01:21:18;;;;;;;11.35;8.75;;;;;;;;;;6128193;23;20065;-70
2022/01/14 01:23:44;;;;;;;15.60;9.20;;;;;;;;;;6102193;23;20076;-69
2022/01/14 01:26:17;;;;;;;8.55;6.47;;;;;;;;;;6101560;23;20010;-70
2022/01/14 01:28:58;;;;;;;12.18;8.38;;;;;;;;;;6127927;23;20002;-69
2022/01/14 01:31:37;;;;;;;15.05;9.77;;;;;;;;;;6128330;23;20080;-69
2022/01/14 01:34:04;;;;;;;14.40;8.73;;;;;;;;;;6128242;23;20010;-69
2022/01/14 01:36:29;;;;;;;16.05;8.50;;;;;;;;;;6128175;23;20045;-68
2022/01/14 01:38:55;;;;;;;13.70;9.32;;;;;;;;;;6127934;23;20013;-69
2022/01/14 01:41:20;;;;;;;13.80;9.13;;;;;;;;;;6127458;23;19998;-69
2022/01/14 01:43:51;;;;;;;13.90;9.10;;;;;;;;;;6127527;23;20002;-69
2022/01/14 01:46:17;;;;;;;12.57;8.50;;;;;;;;;;6127556;23;20010;-64
2022/01/14 01:48:42;;;;;;;14.05;9.27;;;;;;;;;;6101674;23;20362;-64
2022/01/14 01:51:08;;;;;;;10.25;6.88;;;;;;;;;;6102161;23;19994;-64
2022/01/14 01:53:33;;;;;;;13.27;9.05;;;;;;;;;;6127630;23;20331;-64
2022/01/14 01:56:00;;;;;;;8.32;6.28;;;;;;;;;;6101797;23;20002;-65
2022/01/14 01:58:25;;;;;;;12.05;7.45;;;;;;;;;;6101085;23;20041;-64
2022/01/14 02:00:51;;;;;;;12.82;8.80;;;;;;;;;;6128421;23;20411;-64
2022/01/14 02:03:16;;;;;;;12.18;8.35;;;;;;;;;;6127869;23;20006;-64
2022/01/14 02:05:44;;;;;;;12.60;8.40;;;;;;;;;;6127343;23;20002;-63
2022/01/14 02:08:09;;;;;;;14.50;8.80;;;;;;;;;;6127466;23;20339;-64
2022/01/14 02:10:37;;;;;;;12.98;9.10;;;;;;;;;;6127475;23;19994;-64
2022/01/14 02:13:02;;;;;;;9.65;6.82;;;;;;;;;;6127576;23;20006;-64
2022/01/14 02:15:47;;;;;;;13.02;9.02;;;;;;;;;;6127712;23;20013;-63
2022/01/14 02:23:47;;;;;;;11.55;8.43;;;;;;;;;;6127463;23;20334;-70
2022/01/14 02:26:13;;;;;;;11.38;7.43;;;;;;;;;;6127542;23;20009;-65
2022/01/14 02:28:39;;;;;;;18.00;9.82;;;;;;;;;;6127540;23;19998;-65
2022/01/14 02:31:05;;;;;;;11.95;8.23;;;;;;;;;;6126208;23;20034;-65
2022/01/14 02:33:31;;;;;;;9.98;6.55;;;;;;;;;;6127476;23;20426;-64
2022/01/14 02:35:56;;;;;;;14.23;8.70;;;;;;;;;;6127178;23;20064;-64
2022/01/14 02:38:22;;;;;;;11.10;8.05;;;;;;;;;;6127536;23;20006;-64
2022/01/14 02:40:48;;;;;;;13.00;8.38;;;;;;;;;;6127378;23;20006;-64
2022/01/14 02:43:15;;;;;;;12.85;8.40;;;;;;;;;;6127114;23;20423;-63
2022/01/14 02:45:42;;;;;;;13.65;9.65;;;;;;;;;;6127009;23;20002;-63
2022/01/14 02:48:07;;;;;;;7.03;5.07;;;;;;;;;;6126866;23;20005;-64
2022/01/14 02:50:54;;;;;;;12.95;9.50;;;;;;;;;;6127117;23;20380;-64
2022/01/14 02:53:42;;;;;;;12.48;8.25;;;;;;;;;;6127519;23;20010;-64
2022/01/14 02:56:12;;;;;;;12.63;9.07;;;;;;;;;;6127309;23;20061;-65
2022/01/14 02:58:38;;;;;;;12.98;8.40;;;;;;;;;;6126611;23;20083;-64
2022/01/14 03:01:05;;;;;;;16.60;9.60;;;;;;;;;;6126991;23;20013;-64
2022/01/14 03:03:31;;;;;;;12.45;8.88;;;;;;;;;;6127143;23;20010;-69
2022/01/14 03:05:57;;;;;;;12.45;7.25;;;;;;;;;;6126950;23;20331;-69
2022/01/14 03:08:23;;;;;;;14.27;10.00;;;;;;;;;;6127094;23;19998;-68
2022/01/14 03:11:08;;;;;;;15.95;9.63;;;;;;;;;;6126599;23;20438;-70
2022/01/14 03:13:34;;;;;;;15.93;10.15;;;;;;;;;;6126033;23;20010;-68
2022/01/14 03:16:00;;;;;;;15.32;10.13;;;;;;;;;;6126870;23;20001;-68
2022/01/14 03:18:50;;;;;;;16.42;10.65;;;;;;;;;;6126766;23;20005;-68
2022/01/14 03:21:17;;;;;;;16.20;11.10;;;;;;;;;;6126651;23;20093;-68
2022/01/14 03:23:46;;;;;;;14.20;9.15;;;;;;;;;;6126626;23;20006;-61
2022/01/14 03:26:13;;;;;;;11.57;7.40;;;;;;;;;;6100449;23;20033;-61
2022/01/14 03:28:38;;;;;;;13.77;9.85;;;;;;;;;;6126723;23;19998;-62
2022/01/14 03:31:04;;;;;;;9.50;6.03;;;;;;;;;;6126518;23;20009;-61
2022/01/14 03:33:29;;;;;;;8.15;5.78;;;;;;;;;;6126735;23;20125;-62
2022/01/14 03:35:55;;;;;;;15.30;9.77;;;;;;;;;;6126646;23;20427;-62
2022/01/14 03:38:22;;;;;;;14.98;9.40;;;;;;;;;;6126982;23;20002;-67
2022/01/14 03:40:48;;;;;;;17.35;10.85;;;;;;;;;;6126640;23;20009;-67
2022/01/14 03:43:13;;;;;;;16.55;11.55;;;;;;;;;;6126476;23;20097;-68
2022/01/14 03:45:39;;;;;;;16.17;10.70;;;;;;;;;;6126716;23;20415;-67
2022/01/14 03:48:06;;;;;;;15.38;10.93;;;;;;;;;;6126682;23;20048;-67
2022/01/14 03:50:32;;;;;;;16.88;9.90;;;;;;;;;;6126898;23;20009;-68
2022/01/14 03:52:57;;;;;;;13.93;9.60;;;;;;;;;;6126574;23;20006;-63
2022/01/14 03:55:23;;;;;;;15.65;10.43;;;;;;;;;;6126738;23;20318;-63
2022/01/14 03:57:49;;;;;;;15.77;10.32;;;;;;;;;;6126418;23;20329;-63
2022/01/14 04:00:16;;;;;;;15.65;11.05;;;;;;;;;;6126442;23;20022;-63
2022/01/14 04:02:45;;;;;;;17.33;9.93;;;;;;;;;;6126741;23;20065;-62
2022/01/14 04:05:11;;;;;;;13.05;8.88;;;;;;;;;;6126689;23;20005;-62
2022/01/14 04:07:36;;;;;;;14.77;9.38;;;;;;;;;;6126743;23;20005;-66
2022/01/14 04:10:02;;;;;;;14.57;8.93;;;;;;;;;;6126715;23;20069;-66
2022/01/14 04:12:49;;;;;;;15.25;10.00;;;;;;;;;;6126653;23;20020;-65
2022/01/14 04:18:00;;;;;;;16.55;8.55;;;;;;;;;;6126675;23;20025;-71
2022/01/14 04:20:26;;;;;;;9.65;7.22;;;;;;;;;;6126845;23;20359;-63
2022/01/14 04:22:51;;;;;;;14.90;9.15;;;;;;;;;;6126808;23;20065;-63
2022/01/14 04:25:17;;;;;;;16.85;9.95;;;;;;;;;;6126303;23;20029;-63
2022/01/14 04:27:42;;;;;;;15.18;9.52;;;;;;;;;;6126789;23;20049;-63
2022/01/14 04:30:08;;;;;;;14.73;9.30;;;;;;;;;;6126227;23;20463;-63
2022/01/14 04:32:34;;;;;;;14.10;9.02;;;;;;;;;;6126268;23;20010;-61
2022/01/14 04:34:59;;;;;;;15.07;9.85;;;;;;;;;;6126497;23;20423;-67
2022/01/14 04:37:25;;;;;;;11.82;8.30;;;;;;;;;;6126499;23;20020;-67
2022/01/14 04:39:50;;;;;;;12.93;8.95;;;;;;;;;;6126523;23;20002;-67
2022/01/14 04:42:16;;;;;;;14.82;10.80;;;;;;;;;;6125549;23;20037;-67
2022/01/14 04:44:41;;;;;;;11.43;8.57;;;;;;;;;;6126604;23;20010;-60
2022/01/14 04:50:30;;;;;;;13.65;8.73;;;;;;;;;;6100259;23;20006;-62
2022/01/14 04:53:08;;;;;;;11.65;8.85;;;;;;;;;;6099876;23;20327;-69
2022/01/14 04:55:33;;;;;;;8.90;7.07;;;;;;;;;;6128098;23;20300;-70
2022/01/14 04:57:59;;;;;;;12.95;8.38;;;;;;;;;;6128040;23;20054;-64
2022/01/14 05:00:26;;;;;;;13.43;8.75;;;;;;;;;;6128092;23;20092;-63
2022/01/14 05:02:53;;;;;;;11.82;9.25;;;;;;;;;;6127946;23;20098;-63
2022/01/14 05:05:21;;;;;;;12.30;9.27;;;;;;;;;;6127750;23;20013;-64
2022/01/14 05:07:48;;;;;;;14.77;9.20;;;;;;;;;;6128097;23;20018;-70
2022/01/14 05:12:54;;;;;;;;;;;;;;;;;;6128508;23;20088;-69
2022/01/14 05:15:20;;;;;;;12.77;9.65;;;;;;;;;;6127783;23;19936;-71
2022/01/14 05:17:47;;;;;;;14.32;9.25;;;;;;;;;;6127502;23;20006;-71
2022/01/14 05:20:13;;;;;;;12.25;9.05;;;;;;;;;;6127679;23;20002;-69
2022/01/14 05:22:38;;;;;;;13.15;8.90;;;;;;;;;;6127557;23;20010;-71
2022/01/14 05:25:05;;;;;;;15.38;10.23;;;;;;;;;;6127772;23;20002;-71
2022/01/14 05:27:30;;;;;;;14.95;7.80;;;;;;;;;;6127711;23;20423;-70
2022/01/14 05:29:56;;;;;;;10.32;8.40;;;;;;;;;;6127742;23;19993;-70
2022/01/14 05:32:22;;;;;;;10.73;7.80;;;;;;;;;;6127819;23;20009;-69
2022/01/14 05:34:48;;;;;;;14.15;9.35;;;;;;;;;;6127617;23;20145;-69
2022/01/14 05:37:14;;;;;;;10.73;7.90;;;;;;;;;;6127440;23;20050;-70
2022/01/14 05:39:41;;;;;;;16.17;8.57;;;;;;;;;;6126864;23;20432;-70
2022/01/14 05:42:07;;;;;;;12.57;8.95;;;;;;;;;;6127795;23;20021;-69
2022/01/14 05:44:33;;;;;;;12.93;8.00;;;;;;;;;;6127781;23;20002;-69
2022/01/14 05:46:59;;;;;;;12.63;8.27;;;;;;;;;;6127966;23;20069;-69
2022/01/14 05:49:25;;;;;;;7.97;5.90;;;;;;;;;;6127666;23;20309;-69
2022/01/14 05:51:51;;;;;;;7.65;4.35;;;;;;;;;;6127533;23;20002;-69
2022/01/14 05:54:17;;;;;;;15.30;10.02;;;;;;;;;;6127454;23;19994;-68
2022/01/14 05:56:42;;;;;;;6.35;4.97;;;;;;;;;;6102036;23;20386;-69
2022/01/14 05:59:08;;;;;;;15.30;8.82;;;;;;;;;;6127201;23;20038;-69
2022/01/14 06:01:34;;;;;;;14.95;10.45;;;;;;;;;;6127546;23;20013;-68
2022/01/14 06:04:03;;;;;;;13.77;9.27;;;;;;;;;;6127621;23;20005;-69
2022/01/14 06:06:30;;;;;;;14.50;9.33;;;;;;;;;;6127256;23;20030;-68
2022/01/14 06:08:56;;;;;;;15.32;10.50;;;;;;;;;;6101251;23;20090;-68
2022/01/14 06:11:21;;;;;;;13.45;9.10;;;;;;;;;;6127271;23;20033;-69
2022/01/14 06:13:47;;;;;;;15.07;10.35;;;;;;;;;;6127816;23;20001;-69
2022/01/14 06:16:13;;;;;;;14.13;10.40;;;;;;;;;;6127695;23;20068;-69
2022/01/14 06:18:38;;;;;;;13.10;9.57;;;;;;;;;;6127323;23;20021;-69
2022/01/14 06:21:04;;;;;;;14.85;10.70;;;;;;;;;;6127809;23;20020;-70
2022/01/14 06:23:30;;;;;;;14.07;8.43;;;;;;;;;;6127217;23;20081;-69
2022/01/14 06:25:55;;;;;;;12.60;8.45;;;;;;;;;;6127202;23;20010;-69
2022/01/14 06:28:21;;;;;;;16.10;9.70;;;;;;;;;;6127470;23;19994;-68
2022/01/14 06:30:46;;;;;;;15.05;10.60;;;;;;;;;;6126904;23;20052;-68
2022/01/14 06:33:12;;;;;;;17.40;10.88;;;;;;;;;;6127710;23;20009;-68
2022/01/14 06:35:37;;;;;;;11.90;7.57;;;;;;;;;;6127340;23;20009;-69
2022/01/14 06:38:03;;;;;;;13.68;9.18;;;;;;;;;;6127485;23;20009;-68
2022/01/14 06:40:29;;;;;;;17.63;10.90;;;;;;;;;;6127213;23;20435;-68
2022/01/14 06:42:55;;;;;;;12.35;8.32;;;;;;;;;;6127101;23;20075;-68
2022/01/14 06:45:21;;;;;;;11.10;7.75;;;;;;;;;;6127002;23;20037;-68
2022/01/14 06:47:46;;;;;;;11.20;7.47;;;;;;;;;;6127172;23;19994;-68
2022/01/14 06:50:12;;;;;;;12.65;8.20;;;;;;;;;;6127158;23;20009;-68
2022/01/14 06:52:37;;;;;;;11.60;8.05;;;;;;;;;;6127134;23;19994;-68
2022/01/14 06:55:03;;;;;;;11.23;7.25;;;;;;;;;;6126977;23;20065;-68
2022/01/14 06:57:29;;;;;;;15.85;9.23;;;;;;;;;;6127065;23;20076;-68
2022/01/14 06:59:54;;;;;;;10.35;7.40;;;;;;;;;;6127035;23;20105;-68
2022/01/14 07:02:20;;;;;;;14.43;9.07;;;;;;;;;;6127066;23;20017;-69
2022/01/14 07:04:46;;;;;;;8.75;6.63;;;;;;;;;;6126666;23;20434;-70
2022/01/14 07:07:11;;;;;;;12.02;8.02;;;;;;;;;;6126754;23;20082;-69
2022/01/14 07:09:38;;;;;;;11.70;7.28;;;;;;;;;;6126865;23;20085;-68
2022/01/14 07:12:04;;;;;;;8.55;5.72;;;;;;;;;;6126943;23;19994;-69
2022/01/14 07:14:29;;;;;;;12.70;7.25;;;;;;;;;;6126885;23;20006;-68
2022/01/14 07:16:56;;;;;;;13.85;8.05;;;;;;;;;;6126735;23;20312;-70
2022/01/14 07:19:23;;;;;;;10.27;7.05;;;;;;;;;;6126903;23;20031;-69
2022/01/14 07:21:49;;;;;;;11.30;7.45;;;;;;;;;;6126645;23;20009;-69
2022/01/14 07:24:14;;;;;;;12.18;8.43;;;;;;;;;;6126810;23;20006;-70
2022/01/14 07:26:40;;;;;;;12.82;8.13;;;;;;;;;;6126605;23;19994;-69
2022/01/14 07:29:06;;;;;;;12.18;6.95;;;;;;;;;;6126408;23;20013;-69
2022/01/14 07:31:32;;;;;;;9.63;6.50;;;;;;;;;;6126839;23;19998;-69
2022/01/14 07:33:58;;;;;;;9.95;6.57;;;;;;;;;;6126996;23;20009;-69
2022/01/14 07:36:25;;;;;;;12.00;7.95;;;;;;;;;;6126899;23;19998;-69
2022/01/14 07:38:50;;;;;;;13.35;7.95;;;;;;;;;;6126806;23;20093;-69
2022/01/14 07:41:16;;;;;;;14.15;8.35;;;;;;;;;;6126924;23;20087;-69
2022/01/14 07:43:46;;;;;;;12.70;8.20;;;;;;;;;;6126875;23;20006;-70
2022/01/14 07:46:12;;;;;;;11.82;6.70;;;;;;;;;;6126675;23;20038;-69
2022/01/14 07:48:37;;;;;;;12.88;8.45;;;;;;;;;;6126814;23;20367;-69
2022/01/14 07:51:03;;;;;;;11.52;6.80;;;;;;;;;;6126644;23;20006;-69
2022/01/14 07:53:28;;;;;;;11.20;7.82;;;;;;;;;;6126795;23;19998;-69
2022/01/14 07:55:54;;;;;;;13.73;8.85;;;;;;;;;;6126564;23;20005;-69
2022/01/14 07:58:20;;;;;;;7.88;5.38;;;;;;;;;;6125910;23;20036;-69
2022/01/14 08:00:46;;;;;;;13.73;9.15;;;;;;;;;;6126392;23;20474;-69
2022/01/14 08:03:11;;;;;;;12.93;8.88;;;;;;;;;;6126503;23;20013;-69
2022/01/14 08:05:37;;;;;;;12.85;8.98;;;;;;;;;;6126709;23;20049;-69
2022/01/14 08:08:04;;;;;;;14.77;9.98;;;;;;;;;;6126440;23;20002;-69
2022/01/14 08:10:33;;;;;;;14.82;9.02;;;;;;;;;;6127021;23;20002;-69
2022/01/14 08:12:59;;;;;;;9.88;6.43;;;;;;;;;;6126527;23;20131;-69
2022/01/14 08:15:24;;;;;;;14.35;9.57;;;;;;;;;;6126855;23;20055;-69
2022/01/14 08:17:49;;;;;;;10.25;7.05;;;;;;;;;;6126333;23;20002;-69
2022/01/14 08:20:15;;;;;;;14.98;9.10;;;;;;;;;;6100085;23;20085;-70
2022/01/14 08:22:40;;;;;;;10.52;7.22;;;;;;;;;;6126551;23;20080;-70
2022/01/14 08:25:07;;;;;;;15.73;9.57;;;;;;;;;;6126395;23;20010;-70
2022/01/14 08:27:32;;;;;;;7.78;6.13;;;;;;;;;;6126676;23;19994;-70
2022/01/14 08:29:58;;;;;;;13.52;8.88;;;;;;;;;;6128357;23;20013;-69
2022/01/14 08:32:23;;;;;;;10.55;8.25;;;;;;;;;;6128444;23;20100;-69
2022/01/14 08:34:49;;;;;;;10.90;7.38;;;;;;;;;;6128364;23;20006;-69
2022/01/14 08:37:15;;;;;;;12.57;7.97;;;;;;;;;;6128655;23;20002;-68
2022/01/14 08:39:40;;;;;;;14.05;9.50;;;;;;;;;;6128629;23;20347;-68
2022/01/14 08:42:07;;;;;;;11.55;7.85;;;;;;;;;;6128410;23;20025;-69
2022/01/14 08:44:32;;;;;;;13.55;9.20;;;;;;;;;;6128331;23;20315;-69
2022/01/14 08:46:58;;;;;;;10.68;7.00;;;;;;;;;;6128260;23;20001;-69
2022/01/14 08:49:24;;;;;;;10.68;7.63;;;;;;;;;;6128165;23;20006;-71
2022/01/14 08:51:52;;;;;;;10.43;7.43;;;;;;;;;;6128427;23;19994;-71
2022/01/14 08:54:17;;;;;;;12.95;9.73;;;;;;;;;;6128775;23;20052;-71
2022/01/14 08:56:43;;;;;;;13.15;9.77;;;;;;;;;;6128467;23;19998;-71
2022/01/14 08:59:08;;;;;;;13.07;8.73;;;;;;;;;;6127675;23;20010;-71
2022/01/14 09:01:35;;;;;;;11.57;8.20;;;;;;;;;;6128595;23;20005;-71
2022/01/14 09:04:02;;;;;;;14.57;9.85;;;;;;;;;;6128615;23;19998;-71
2022/01/14 09:06:28;;;;;;;16.00;9.00;;;;;;;;;;6128409;23;20088;-71
2022/01/14 09:08:53;;;;;;;13.00;9.50;;;;;;;;;;6128047;23;20434;-71
2022/01/14 09:11:19;;;;;;;12.65;8.07;;;;;;;;;;6128116;23;20026;-71
2022/01/14 09:13:44;;;;;;;11.93;8.15;;;;;;;;;;6127687;23;20004;-71
2022/01/14 09:16:10;;;;;;;11.70;8.40;;;;;;;;;;6102158;23;20423;-71
2022/01/14 09:18:36;;;;;;;15.25;10.25;;;;;;;;;;6128097;23;20002;-71
2022/01/14 09:21:01;;;;;;;13.50;9.18;;;;;;;;;;6128103;23;20040;-71
2022/01/14 09:23:28;;;;;;;12.82;8.98;;;;;;;;;;6127624;23;20006;-71
2022/01/14 09:25:54;;;;;;;16.35;10.73;;;;;;;;;;6127983;23;20419;-71
2022/01/14 09:28:19;;;;;;;16.48;11.25;;;;;;;;;;6128110;23;19994;-71
2022/01/14 09:30:45;;;;;;;16.65;10.35;;;;;;;;;;6128157;23;20010;-71
2022/01/14 09:33:10;;;;;;;18.17;11.52;;;;;;;;;;6128453;23;20449;-71
2022/01/14 09:35:37;;;;;;;14.63;10.07;;;;;;;;;;6127970;23;20104;-71
2022/01/14 09:38:03;;;;;;;16.65;11.45;;;;;;;;;;6127725;23;19998;-71
2022/01/14 09:40:28;;;;;;;18.67;11.38;;;;;;;;;;6127496;23;20009;-71
2022/01/14 09:43:00;;;;;;;19.67;12.57;;;;;;;;;;6128092;23;20008;-71
2022/01/14 09:45:26;;;;;;;15.98;10.82;;;;;;;;;;6127964;23;20014;-71
2022/01/14 09:47:51;;;;;;;12.43;8.65;;;;;;;;;;6127770;23;20004;-71
2022/01/14 09:50:17;;;;;;;12.25;7.63;;;;;;;;;;6127800;23;20010;-71
2022/01/14 09:52:45;;;;;;;18.90;12.43;;;;;;;;;;6127746;23;20002;-71
2022/01/14 09:55:11;;;;;;;17.65;10.93;;;;;;;;;;6127636;23;20010;-71
2022/01/14 09:57:37;;;;;;;16.55;11.20;;;;;;;;;;6127805;23;20002;-71
2022/01/14 10:00:05;;;;;;;16.58;10.68;;;;;;;;;;6126691;23;20052;-71
2022/01/14 10:02:35;;;;;;;17.55;10.30;;;;;;;;;;6127797;23;20010;-71
2022/01/14 10:05:01;;;;;;;18.20;11.88;;;;;;;;;;6127391;23;20013;-71
2022/01/14 10:07:27;;;;;;;16.17;11.35;;;;;;;;;;6127620;23;19998;-71
2022/01/14 10:09:59;;;;;;;16.30;11.93;;;;;;;;;;6127662;23;20025;-71
2022/01/14 10:12:25;;;;;;;14.75;9.32;;;;;;;;;;6127445;23;20010;-71
2022/01/14 10:14:54;;;;;;;18.70;12.48;;;;;;;;;;6127739;23;20073;-71
2022/01/14 10:17:19;;;;;;;20.02;13.10;;;;;;;;;;6127451;23;20006;-71
2022/01/14 10:19:46;;;;;;;19.90;12.07;;;;;;;;;;6126958;23;20057;-71
2022/01/14 10:22:19;;;;;;;20.85;14.30;;;;;;;;;;6127250;23;20335;-71
2022/01/14 10:24:54;;;;;;;19.50;13.02;;;;;;;;;;6127539;23;20005;-72
2022/01/14 10:27:38;;;;;;;19.63;13.52;;;;;;;;;;6102651;23;20009;-70
2022/01/14 10:30:09;;;;;;;17.38;11.23;;;;;;;;;;6127406;23;20006;-71
2022/01/14 10:32:37;;;;;;;12.50;8.38;;;;;;;;;;6127519;23;20012;-72
2022/01/14 10:35:07;;;;;;;18.10;11.35;;;;;;;;;;6127632;23;20006;-72
2022/01/14 10:37:34;;;;;;;20.38;13.05;;;;;;;;;;6127270;23;20342;-71
2022/01/14 10:40:03;;;;;;;17.85;11.73;;;;;;;;;;6127255;23;20106;-71
2022/01/14 10:42:30;;;;;;;19.23;12.63;;;;;;;;;;6127313;23;20473;-71
2022/01/14 10:45:09;;;;;;;14.90;10.13;;;;;;;;;;6101099;23;20491;-71
2022/01/14 10:47:34;;;;;;;17.20;11.38;;;;;;;;;;6127476;23;20474;-70
2022/01/14 10:50:00;;;;;;;14.20;9.25;;;;;;;;;;6127273;23;19994;-70
2022/01/14 10:52:26;;;;;;;17.55;10.30;;;;;;;;;;6126253;23;20038;-70
2022/01/14 10:54:57;;;;;;;11.20;6.70;;;;;;;;;;6126800;23;20021;-70
2022/01/14 10:57:24;;;;;;;15.23;9.88;;;;;;;;;;6101351;23;20010;-70
2022/01/14 10:59:52;;;;;;;15.13;9.80;;;;;;;;;;6126224;23;20014;-70
2022/01/14 11:02:35;;;;;;;15.30;10.13;;;;;;;;;;6101215;23;20021;-71
2022/01/14 11:05:01;;;;;;;14.02;9.52;;;;;;;;;;6127028;23;20069;-70
2022/01/14 11:07:28;;;;;;;15.38;10.05;;;;;;;;;;6127036;23;20001;-70
2022/01/14 11:09:54;;;;;;;13.20;8.82;;;;;;;;;;6101038;23;20006;-70
2022/01/14 11:12:19;;;;;;;13.85;9.00;;;;;;;;;;6126687;23;20001;-70
2022/01/14 11:14:46;;;;;;;12.82;8.82;;;;;;;;;;6127055;23;20010;-70
2022/01/14 11:17:12;;;;;;;9.38;6.40;;;;;;;;;;6127249;23;20001;-71
2022/01/14 11:19:37;;;;;;;12.00;7.32;;;;;;;;;;6126664;23;20006;-70
2022/01/14 11:24:47;;;;;;;9.45;6.78;;;;;;;;;;6126770;23;20013;-70
2022/01/14 11:27:14;;;;;;;10.55;7.40;;;;;;;;;;6126735;23;20001;-71
2022/01/14 11:29:42;;;;;;;12.85;8.77;;;;;;;;;;6127075;23;20016;-70
2022/01/14 11:32:08;;;;;;;8.63;5.82;;;;;;;;;;6126656;23;20069;-71
2022/01/14 11:34:35;;;;;;;10.60;7.70;;;;;;;;;;6126960;23;20038;-70
2022/01/14 11:37:01;;;;;;;13.73;8.88;;;;;;;;;;6126884;23;20002;-70
2022/01/14 11:39:30;;;;;;;13.68;8.18;;;;;;;;;;6126734;23;20341;-70
2022/01/14 11:42:04;;;;;;;11.75;8.10;;;;;;;;;;6126835;23;20053;-70
2022/01/14 11:44:46;;;;;;;11.93;7.18;;;;;;;;;;6126810;23;20057;-70
2022/01/14 11:47:28;;;;;;;13.82;8.02;;;;;;;;;;6126850;23;20458;-70
2022/01/14 11:49:55;;;;;;;16.52;9.65;;;;;;;;;;6126406;23;20002;-70
2022/01/14 11:52:40;;;;;;;13.77;9.52;;;;;;;;;;6100328;23;19998;-70
2022/01/14 11:55:15;;;;;;;10.88;8.15;;;;;;;;;;6126118;23;20097;-70
2022/01/14 11:57:45;;;;;;;11.25;8.23;;;;;;;;;;6126532;23;20048;-70
2022/01/14 12:00:11;;;;;;;;;;;;;;;;;;6126357;23;20382;-70
2022/01/14 12:02:38;;;;;;;10.70;8.15;;;;;;;;;;6100491;23;19956;-70
2022/01/14 12:05:05;;;;;;;13.70;8.63;;;;;;;;;;6126586;23;20010;-72
2022/01/14 12:07:31;;;;;;;9.30;6.72;;;;;;;;;;6126539;23;20005;-70
2022/01/14 12:10:09;;;;;;;9.18;6.05;;;;;;;;;;6126301;23;20002;-70
2022/01/14 12:12:35;;;;;;;12.25;8.23;;;;;;;;;;6100328;23;20488;-70
2022/01/14 12:15:03;;;;;;;11.10;7.65;;;;;;;;;;6100596;23;20033;-70
2022/01/14 12:17:32;;;;;;;4.70;3.03;;;;;;;;;;6126585;23;20010;-70
2022/01/14 12:20:05;;;;;;;13.40;8.32;;;;;;;;;;6126589;23;20481;-70
2022/01/14 12:22:32;;;;;;;11.85;8.93;;;;;;;;;;6126620;23;20056;-71
2022/01/14 12:24:58;;;;;;;11.25;7.35;;;;;;;;;;6100463;23;20452;-70
2022/01/14 12:27:25;;;;;;;11.13;7.43;;;;;;;;;;6126625;23;20002;-70
2022/01/14 12:29:51;;;;;;;8.98;6.30;;;;;;;;;;6126181;23;19994;-70
2022/01/14 12:32:29;;;;;;;9.80;7.03;;;;;;;;;;6126103;23;20045;-70
2022/01/14 12:34:56;;;;;;;9.68;6.30;;;;;;;;;;6126353;23;20100;-70
2022/01/14 12:37:31;;;;;;;11.07;6.45;;;;;;;;;;6126597;23;20005;-70
2022/01/14 12:40:01;;;;;;;6.93;5.72;;;;;;;;;;6126420;23;20017;-70
2022/01/14 12:42:28;;;;;;;5.90;4.80;;;;;;;;;;6100878;23;20072;-70
2022/01/14 12:44:54;;;;;;;7.05;5.75;;;;;;;;;;6126477;23;20009;-70
2022/01/14 12:47:26;;;;;;;5.60;4.28;;;;;;;;;;6126319;23;20013;-70
2022/01/14 12:49:53;;;;;;;7.38;6.20;;;;;;;;;;6125929;23;20092;-70
2022/01/14 12:52:29;;;;;;;5.97;4.72;;;;;;;;;;6100506;23;20311;-70
2022/01/14 12:54:55;;;;;;;6.55;5.88;;;;;;;;;;6126478;23;20013;-70
2022/01/14 12:57:24;;;;;;;10.82;6.70;;;;;;;;;;6126425;23;19998;-70
2022/01/14 12:59:51;;;;;;;6.93;6.20;;;;;;;;;;6125656;23;20010;-70
2022/01/14 13:02:18;;;;;;;9.77;6.85;;;;;;;;;;6126985;23;20009;-70
2022/01/14 13:04:59;;;;;;;6.85;6.03;;;;;;;;;;6126294;23;20014;-72
2022/01/14 13:07:25;;;;;;;8.57;6.68;;;;;;;;;;6100050;23;20013;-70
2022/01/14 13:09:51;;;;;;;7.85;6.38;;;;;;;;;;6126008;23;19997;-70
2022/01/14 13:12:20;;;;;;;6.78;5.93;;;;;;;;;;6125929;23;20002;-71
2022/01/14 13:14:57;;;;;;;9.82;7.40;;;;;;;;;;6126316;23;19998;-70
2022/01/14 13:17:27;;;;;;;7.00;5.57;;;;;;;;;;6127700;23;20442;-70
2022/01/14 13:20:00;;;;;;;8.38;7.00;;;;;;;;;;6127712;23;20009;-70
2022/01/14 13:22:28;;;;;;;9.55;6.55;;;;;;;;;;6127718;23;20006;-70
2022/01/14 13:24:55;;;;;;;11.43;8.50;;;;;;;;;;6127655;23;20001;-70
2022/01/14 13:27:22;;;;;;;12.02;8.35;;;;;;;;;;6127757;23;20002;-70
2022/01/14 13:29:49;;;;;;;4.18;2.97;;;;;;;;;;6127563;23;20025;-69
2022/01/14 13:32:16;;;;;;;6.20;4.78;;;;;;;;;;6127502;23;20009;-69
2022/01/14 13:34:49;;;;;;;4.95;3.95;;;;;;;;;;6101734;23;20002;-69
2022/01/14 13:37:18;;;;;;;5.13;3.78;;;;;;;;;;6127489;23;20006;-69
2022/01/14 13:39:44;;;;;;;7.43;4.53;;;;;;;;;;6127395;23;20002;-69
2022/01/14 13:42:23;;;;;;;8.27;5.38;;;;;;;;;;6127396;23;20006;-69
2022/01/14 13:44:49;;;;;;;7.35;5.60;;;;;;;;;;6126927;23;20006;-69
2022/01/14 13:47:21;;;;;;;6.47;5.18;;;;;;;;;;6127681;23;20002;-69
2022/01/14 13:49:47;;;;;;;6.22;4.05;;;;;;;;;;6127274;23;20104;-69
2022/01/14 13:52:14;;;;;;;5.90;4.78;;;;;;;;;;6127242;23;20419;-70
2022/01/14 13:54:40;;;;;;;6.03;4.40;;;;;;;;;;6127302;23;20085;-69
2022/01/14 13:57:07;;;;;;;5.68;4.47;;;;;;;;;;6127293;23;20084;-69
2022/01/14 13:59:32;;;;;;;5.57;4.93;;;;;;;;;;6126995;23;20089;-69
2022/01/14 14:01:59;;;;;;;6.97;5.45;;;;;;;;;;6101151;23;20037;-69
2022/01/14 14:04:31;;;;;;;5.63;4.43;;;;;;;;;;6127653;23;20010;-69
2022/01/14 14:07:07;;;;;;;7.22;6.18;;;;;;;;;;6127400;23;20307;-69
2022/01/14 14:10:05;;;;;;;12.00;8.43;;;;;;;;;;6127630;23;20034;-69
2022/01/14 14:12:44;;;;;;;8.98;7.57;;;;;;;;;;6128098;23;20315;-67
2022/01/14 14:18:13;;;;;;;9.30;5.60;;;;;;;;;;6127387;23;20335;-70
2022/01/14 14:20:39;;;;;;;10.02;7.47;;;;;;;;;;6127538;23;20399;-69
2022/01/14 14:23:11;;;;;;;10.05;6.63;;;;;;;;;;6127501;23;19998;-71
2022/01/14 14:25:38;;;;;;;9.65;6.35;;;;;;;;;;6127318;23;20430;-70
2022/01/14 14:28:05;;;;;;;7.88;5.88;;;;;;;;;;6126907;23;20005;-72
2022/01/14 14:30:34;;;;;;;7.93;5.88;;;;;;;;;;6126969;23;20006;-72
2022/01/14 14:32:59;;;;;;;7.93;6.25;;;;;;;;;;6127478;23;20307;-72
2022/01/14 14:35:30;;;;;;;9.48;6.50;;;;;;;;;;6127270;23;20006;-72
2022/01/14 14:37:56;;;;;;;8.00;5.97;;;;;;;;;;6127328;23;20017;-73
2022/01/14 14:40:26;;;;;;;7.30;5.90;;;;;;;;;;6127088;23;20022;-72
2022/01/14 14:42:52;;;;;;;6.72;4.97;;;;;;;;;;6127222;23;20013;-73
2022/01/14 14:45:18;;;;;;;7.53;5.50;;;;;;;;;;6127134;23;20430;-72
2022/01/14 14:47:45;;;;;;;7.93;5.78;;;;;;;;;;6126709;23;20002;-70
2022/01/14 14:50:11;;;;;;;6.85;5.38;;;;;;;;;;6127150;23;19994;-70
2022/01/14 14:52:37;;;;;;;8.32;5.85;;;;;;;;;;6127125;23;20002;-69
2022/01/14 14:55:04;;;;;;;9.45;5.90;;;;;;;;;;6127032;23;20437;-69
2022/01/14 14:57:29;;;;;;;6.90;5.53;;;;;;;;;;6126979;23;20013;-70
2022/01/14 14:59:55;;;;;;;9.73;6.97;;;;;;;;;;6126632;23;19998;-72
2022/01/14 15:02:22;;;;;;;9.77;7.18;;;;;;;;;;6126944;23;20065;-73
2022/01/14 15:04:47;;;;;;;8.00;6.22;;;;;;;;;;6127023;23;20092;-73
2022/01/14 15:07:13;;;;;;;8.05;6.80;;;;;;;;;;6127116;23;20096;-72